createdAt,value
2022-11-07T00:01:22.604Z,2.90
2022-11-07T00:06:16.463Z,2.85
2022-11-07T00:08:43.239Z,2.58
2022-11-07T00:11:10.085Z,2.80
2022-11-07T00:13:37.129Z,3.35
2022-11-07T00:16:10.328Z,3.03
2022-11-07T00:18:37.526Z,2.75
2022-11-07T00:21:09.627Z,3.10
2022-11-07T00:23:40.090Z,3.30
2022-11-07T00:26:10.539Z,2.92
2022-11-07T00:28:40.299Z,3.33
2022-11-07T00:31:09.345Z,3.33
2022-11-07T00:33:36.473Z,3.17
2022-11-07T00:36:04.358Z,3.17
2022-11-07T00:38:31.207Z,3.25
2022-11-07T00:41:03.916Z,3.78
2022-11-07T00:43:32.249Z,3.08
2022-11-07T00:46:02.359Z,3.38
2022-11-07T00:48:32.612Z,3.63
2022-11-07T00:51:15.575Z,3.20
2022-11-07T00:53:42.965Z,3.05
2022-11-07T00:56:15.963Z,3.60
2022-11-07T00:58:44.378Z,3.20
2022-11-07T01:01:17.779Z,2.85
2022-11-07T01:04:03.100Z,2.90
2022-11-07T01:06:32.532Z,2.88
2022-11-07T01:08:59.595Z,3.38
2022-11-07T01:11:28.573Z,3.35
2022-11-07T01:14:04.911Z,3.05
2022-11-07T01:16:35.238Z,2.50
2022-11-07T01:19:03.413Z,2.83
2022-11-07T01:21:30.351Z,2.60
2022-11-07T01:23:57.462Z,3.50
2022-11-07T01:26:24.534Z,2.60
2022-11-07T01:28:51.624Z,2.80
2022-11-07T01:31:18.779Z,2.90
2022-11-07T01:33:46.220Z,2.30
2022-11-07T01:36:17.783Z,2.70
2022-11-07T01:41:27.729Z,2.58
2022-11-07T01:43:57.503Z,2.67
2022-11-07T01:46:39.030Z,2.80
2022-11-07T01:49:12.009Z,3.00
2022-11-07T01:51:52.330Z,2.67
2022-11-07T01:54:23.303Z,2.47
2022-11-07T01:56:51.362Z,1.98
2022-11-07T01:59:21.427Z,2.30
2022-11-07T02:01:48.342Z,2.40
2022-11-07T02:04:16.806Z,3.15
2022-11-07T02:06:54.611Z,2.97
2022-11-07T02:09:21.761Z,2.80
2022-11-07T02:11:48.627Z,2.83
2022-11-07T02:14:16.702Z,2.83
2022-11-07T02:16:43.632Z,2.80
2022-11-07T02:19:47.466Z,2.80
2022-11-07T02:22:20.268Z,2.67
2022-11-07T02:24:50.896Z,2.63
2022-11-07T02:27:21.318Z,2.72
2022-11-07T02:29:52.546Z,2.10
2022-11-07T02:32:19.439Z,2.67
2022-11-07T02:34:58.979Z,2.65
2022-11-07T02:37:31.431Z,2.55
2022-11-07T02:40:05.216Z,3.08
2022-11-07T02:42:43.399Z,2.75
2022-11-07T02:45:17.836Z,2.60
2022-11-07T02:47:45.045Z,2.67
2022-11-07T02:50:14.931Z,3.08
2022-11-07T02:52:42.442Z,3.00
2022-11-07T02:55:10.610Z,2.75
2022-11-07T02:57:37.384Z,2.30
2022-11-07T03:00:06.985Z,2.20
2022-11-07T03:02:34.015Z,2.38
2022-11-07T03:05:00.912Z,2.40
2022-11-07T03:07:27.829Z,2.60
2022-11-07T03:09:54.594Z,2.50
2022-11-07T03:12:21.413Z,2.40
2022-11-07T03:14:48.228Z,2.10
2022-11-07T03:17:15.062Z,2.30
2022-11-07T03:19:41.917Z,2.88
2022-11-07T03:22:08.694Z,2.50
2022-11-07T03:24:35.456Z,2.50
2022-11-07T03:27:02.282Z,2.20
2022-11-07T03:29:29.023Z,2.45
2022-11-07T03:31:55.773Z,2.42
2022-11-07T03:34:22.593Z,2.30
2022-11-07T03:36:49.551Z,2.38
2022-11-07T03:39:17.737Z,1.98
2022-11-07T03:41:46.269Z,2.08
2022-11-07T03:44:13.004Z,2.58
2022-11-07T03:46:39.802Z,2.03
2022-11-07T03:49:06.655Z,2.60
2022-11-07T03:51:33.517Z,2.80
2022-11-07T03:54:00.352Z,2.70
2022-11-07T03:56:27.207Z,2.70
2022-11-07T03:58:54.006Z,2.65
2022-11-07T04:01:21.034Z,2.35
2022-11-07T04:03:47.953Z,2.30
2022-11-07T04:06:14.838Z,2.22
2022-11-07T04:08:41.727Z,2.60
2022-11-07T04:11:28.431Z,2.28
2022-11-07T04:14:13.648Z,2.72
2022-11-07T04:17:02.102Z,2.35
2022-11-07T04:19:28.905Z,2.40
2022-11-07T04:21:55.641Z,2.63
2022-11-07T04:24:22.363Z,2.22
2022-11-07T04:27:07.983Z,2.20
2022-11-07T04:29:34.759Z,2.80
2022-11-07T04:32:01.560Z,2.03
2022-11-07T04:34:28.364Z,2.65
2022-11-07T04:36:55.065Z,2.40
2022-11-07T04:39:21.799Z,2.65
2022-11-07T04:41:48.883Z,2.38
2022-11-07T04:44:15.612Z,2.28
2022-11-07T04:46:42.586Z,5.05
2022-11-07T04:49:09.321Z,3.95
2022-11-07T04:51:42.781Z,2.78
2022-11-07T04:54:14.439Z,2.80
2022-11-07T04:56:41.659Z,2.30
2022-11-07T04:59:08.685Z,2.45
2022-11-07T05:01:35.559Z,2.40
2022-11-07T05:04:02.512Z,2.63
2022-11-07T05:06:29.343Z,2.20
2022-11-07T05:08:56.065Z,2.70
2022-11-07T05:11:22.820Z,2.55
2022-11-07T05:13:49.603Z,2.55
2022-11-07T05:16:19.727Z,2.70
2022-11-07T05:18:46.566Z,3.15
2022-11-07T05:21:13.328Z,3.05
2022-11-07T05:23:40.143Z,2.45
2022-11-07T05:26:06.980Z,2.60
2022-11-07T05:28:39.056Z,2.20
2022-11-07T05:31:08.015Z,2.40
2022-11-07T05:33:35.533Z,2.80
2022-11-07T05:36:18.571Z,2.38
2022-11-07T05:38:48.542Z,2.13
2022-11-07T05:41:17.478Z,3.70
2022-11-07T05:43:44.843Z,2.50
2022-11-07T05:46:12.041Z,2.53
2022-11-07T05:48:39.117Z,2.40
2022-11-07T05:51:07.732Z,2.75
2022-11-07T05:53:35.381Z,2.65
2022-11-07T05:56:02.187Z,2.85
2022-11-07T05:58:29.183Z,2.90
2022-11-07T06:01:05.255Z,2.80
2022-11-07T06:03:32.806Z,2.78
2022-11-07T06:05:59.698Z,3.05
2022-11-07T06:08:26.459Z,2.70
2022-11-07T06:10:53.297Z,2.40
2022-11-07T06:13:20.143Z,2.90
2022-11-07T06:15:47.195Z,3.20
2022-11-07T06:18:18.320Z,2.80
2022-11-07T06:23:13.607Z,2.80
2022-11-07T06:25:40.801Z,2.47
2022-11-07T06:28:10.511Z,2.67
2022-11-07T06:30:38.088Z,3.03
2022-11-07T06:33:17.402Z,3.10
2022-11-07T06:35:45.851Z,2.95
2022-11-07T06:38:14.420Z,2.85
2022-11-07T06:40:42.695Z,2.92
2022-11-07T06:43:14.665Z,2.90
2022-11-07T06:45:43.314Z,2.80
2022-11-07T06:48:11.391Z,2.67
2022-11-07T06:50:39.017Z,3.00
2022-11-07T06:53:10.014Z,2.67
2022-11-07T06:55:38.059Z,3.63
2022-11-07T06:58:05.619Z,2.67
2022-11-07T07:00:34.651Z,2.85
2022-11-07T07:03:01.897Z,2.75
2022-11-07T07:05:28.790Z,2.22
2022-11-07T07:07:56.152Z,2.97
2022-11-07T07:10:25.250Z,2.70
2022-11-07T07:12:56.593Z,2.42
2022-11-07T07:15:23.665Z,3.13
2022-11-07T07:17:50.469Z,2.78
2022-11-07T07:20:17.341Z,2.90
2022-11-07T07:22:45.287Z,2.80
2022-11-07T07:25:12.200Z,2.95
2022-11-07T07:27:38.961Z,3.15
2022-11-07T07:30:06.835Z,2.70
2022-11-07T07:32:36.038Z,2.72
2022-11-07T07:35:03.088Z,2.67
2022-11-07T07:37:30.675Z,3.15
2022-11-07T07:39:57.531Z,3.10
2022-11-07T07:42:25.153Z,3.10
2022-11-07T07:44:51.996Z,2.67
2022-11-07T07:47:18.969Z,2.78
2022-11-07T07:49:45.739Z,3.08
2022-11-07T07:52:12.938Z,2.80
2022-11-07T07:54:39.989Z,3.47
2022-11-07T07:57:06.951Z,2.85
2022-11-07T07:59:33.875Z,2.47
2022-11-07T08:02:00.793Z,2.95
2022-11-07T08:04:27.856Z,2.47
2022-11-07T08:06:55.124Z,3.13
2022-11-07T08:09:22.176Z,3.33
2022-11-07T08:11:49.218Z,3.03
2022-11-07T08:14:16.470Z,2.92
2022-11-07T08:16:43.653Z,2.60
2022-11-07T08:19:11.271Z,2.83
2022-11-07T08:21:38.341Z,2.65
2022-11-07T08:24:06.562Z,2.67
2022-11-07T08:26:33.558Z,3.08
2022-11-07T08:29:00.631Z,3.20
2022-11-07T08:31:27.822Z,2.60
2022-11-07T08:34:00.788Z,4.55
2022-11-07T08:36:28.041Z,2.67
2022-11-07T08:38:55.093Z,2.65
2022-11-07T08:41:22.655Z,2.88
2022-11-07T08:43:49.735Z,2.95
2022-11-07T08:46:16.724Z,2.92
2022-11-07T08:48:44.202Z,2.50
2022-11-07T08:51:11.475Z,2.65
2022-11-07T08:53:38.528Z,2.67
2022-11-07T08:56:09.771Z,2.70
2022-11-07T08:58:37.889Z,2.60
2022-11-07T09:01:09.593Z,2.92
2022-11-07T09:03:50.246Z,2.78
2022-11-07T09:06:22.397Z,2.83
2022-11-07T09:08:49.325Z,3.25
2022-11-07T09:11:18.968Z,2.90
2022-11-07T09:13:49.135Z,2.70
2022-11-07T09:16:17.523Z,3.15
2022-11-07T09:18:46.389Z,2.80
2022-11-07T09:21:17.694Z,3.00
2022-11-07T09:23:47.882Z,2.75
2022-11-07T09:26:14.952Z,2.63
2022-11-07T09:28:44.621Z,2.53
2022-11-07T09:31:15.342Z,2.03
2022-11-07T09:33:42.166Z,3.08
2022-11-07T09:36:09.627Z,2.75
2022-11-07T09:38:36.529Z,2.70
2022-11-07T09:41:44.040Z,2.88
2022-11-07T09:44:37.390Z,2.40
2022-11-07T09:47:57.746Z,2.20
2022-11-07T09:50:41.413Z,2.42
2022-11-07T09:53:23.485Z,2.45
2022-11-07T09:55:59.211Z,2.55
2022-11-07T09:58:45.996Z,2.70
2022-11-07T10:01:17.297Z,2.20
2022-11-07T10:04:10.219Z,2.95
2022-11-07T10:07:04.483Z,2.47
2022-11-07T10:10:31.533Z,2.67
2022-11-07T10:13:14.743Z,2.67
2022-11-07T10:15:52.905Z,2.75
2022-11-07T10:19:05.505Z,3.63
2022-11-07T10:21:50.655Z,2.53
2022-11-07T10:24:28.160Z,3.63
2022-11-07T13:29:37.317Z,2.88
2022-11-07T13:32:12.228Z,2.88
2022-11-07T13:34:57.768Z,2.88
2022-11-07T13:37:41.504Z,2.50
2022-11-07T13:40:25.357Z,3.35
2022-11-07T13:43:41.568Z,2.60
2022-11-07T13:46:29.936Z,2.47
2022-11-07T13:49:03.116Z,2.70
2022-11-07T13:54:29.121Z,2.72
2022-11-07T13:57:24.592Z,4.47
2022-11-07T14:00:00.656Z,3.53
2022-11-07T14:02:33.485Z,2.95
2022-11-07T14:05:18.705Z,2.75
2022-11-07T14:08:05.206Z,2.78
2022-11-07T14:10:44.697Z,3.25
2022-11-07T14:13:22.317Z,2.45
2022-11-07T14:15:59.985Z,2.63
2022-11-07T14:18:59.503Z,2.90
2022-11-07T14:21:32.536Z,3.00
2022-11-07T14:23:59.839Z,2.55
2022-11-07T14:26:30.833Z,2.80
2022-11-07T14:29:00.635Z,2.38
2022-11-07T14:31:35.647Z,2.38
2022-11-07T14:34:21.266Z,2.55
2022-11-07T14:36:55.541Z,2.70
2022-11-07T14:39:25.660Z,2.50
2022-11-07T14:41:54.389Z,2.65
2022-11-07T14:44:55.431Z,2.92
2022-11-07T14:47:30.289Z,2.80
2022-11-07T14:49:57.528Z,2.95
2022-11-07T14:52:47.702Z,2.90
2022-11-07T14:55:29.268Z,2.50
2022-11-07T14:58:00.811Z,2.88
2022-11-07T15:00:29.017Z,3.20
2022-11-07T15:02:58.246Z,3.08
2022-11-07T15:05:37.434Z,2.72
2022-11-07T15:08:04.849Z,2.30
2022-11-07T15:10:36.730Z,2.25
2022-11-07T15:13:20.668Z,2.65
2022-11-07T15:15:47.925Z,2.90
2022-11-07T15:18:27.876Z,2.60
2022-11-07T15:21:00.890Z,2.25
2022-11-07T15:23:34.897Z,2.88
2022-11-07T15:26:07.823Z,3.00
2022-11-07T15:28:53.821Z,2.67
2022-11-07T15:31:28.319Z,2.85
2022-11-07T15:33:58.148Z,2.33
2022-11-07T15:36:25.848Z,2.63
2022-11-07T15:38:56.332Z,2.72
2022-11-07T15:41:23.554Z,2.60
2022-11-07T15:43:50.713Z,3.13
2022-11-07T15:46:38.712Z,3.00
2022-11-07T15:49:07.655Z,3.50
2022-11-07T15:51:34.802Z,2.55
2022-11-07T15:54:01.816Z,2.75
2022-11-07T15:56:29.219Z,2.08
2022-11-07T15:58:56.398Z,2.75
2022-11-07T16:01:23.971Z,2.58
2022-11-07T16:03:51.155Z,2.63
2022-11-07T16:06:26.507Z,2.42
2022-11-07T16:08:54.053Z,2.80
2022-11-07T16:11:21.014Z,2.80
2022-11-07T16:13:48.042Z,2.45
2022-11-07T16:16:20.315Z,2.38
2022-11-07T16:18:52.017Z,1.90
2022-11-07T16:21:20.169Z,2.15
2022-11-07T16:23:49.652Z,2.33
2022-11-07T16:26:26.830Z,2.85
2022-11-07T16:28:53.905Z,2.20
2022-11-07T16:31:20.719Z,1.90
2022-11-07T16:33:47.809Z,1.88
2022-11-07T16:36:29.996Z,2.15
2022-11-07T16:38:56.914Z,1.90
2022-11-07T16:41:24.012Z,1.98
2022-11-07T16:43:51.788Z,2.63
2022-11-07T16:46:21.411Z,1.73
2022-11-07T16:48:51.671Z,2.00
2022-11-07T16:51:21.096Z,2.30
2022-11-07T16:53:48.744Z,2.00
2022-11-07T16:56:30.422Z,2.05
2022-11-07T17:01:26.427Z,2.35
2022-11-07T17:03:54.691Z,2.00
2022-11-07T17:06:46.313Z,3.03
2022-11-07T17:09:17.336Z,2.22
2022-11-07T17:11:45.079Z,1.83
2022-11-07T17:14:12.548Z,2.30
2022-11-07T17:16:42.455Z,2.40
2022-11-07T17:19:10.884Z,2.30
2022-11-07T17:21:40.172Z,2.28
2022-11-07T17:24:08.182Z,2.42
2022-11-07T17:26:37.723Z,2.20
2022-11-07T17:29:13.255Z,2.20
2022-11-07T17:31:42.349Z,2.63
2022-11-07T17:34:10.204Z,2.75
2022-11-07T17:36:40.649Z,3.00
2022-11-07T17:39:27.731Z,2.60
2022-11-07T17:41:54.627Z,2.38
2022-11-07T17:44:21.741Z,3.10
2022-11-07T17:46:50.259Z,3.10
2022-11-07T17:49:22.128Z,3.20
2022-11-07T17:51:49.152Z,2.70
2022-11-07T17:54:16.241Z,3.00
2022-11-07T17:56:43.481Z,4.35
2022-11-07T17:59:17.026Z,3.65
2022-11-07T18:01:44.954Z,3.47
2022-11-07T18:04:13.812Z,3.72
2022-11-07T18:06:42.718Z,3.50
2022-11-07T18:09:15.893Z,3.00
2022-11-07T18:11:43.634Z,3.75
2022-11-07T18:14:12.800Z,3.97
2022-11-07T18:16:39.825Z,3.65
2022-11-07T18:19:06.952Z,3.33
2022-11-07T18:21:34.011Z,3.20
2022-11-07T18:24:01.171Z,3.45
2022-11-07T18:26:30.813Z,3.72
2022-11-07T18:29:02.900Z,4.55
2022-11-07T18:31:30.241Z,3.92
2022-11-07T18:33:59.740Z,3.58
2022-11-07T18:36:27.622Z,3.70
2022-11-07T18:38:54.889Z,3.90
2022-11-07T18:41:23.785Z,3.67
2022-11-07T18:43:54.253Z,3.58
2022-11-07T18:46:23.537Z,4.15
2022-11-07T18:48:50.990Z,4.30
2022-11-07T18:51:22.915Z,4.00
2022-11-07T18:53:53.993Z,4.03
2022-11-07T18:56:21.692Z,4.15
2022-11-07T18:58:48.912Z,3.97
2022-11-07T19:01:28.838Z,3.78
2022-11-07T19:03:58.493Z,3.95
2022-11-07T19:06:28.687Z,4.13
2022-11-07T19:08:56.092Z,3.88
2022-11-07T19:11:28.791Z,3.55
2022-11-07T19:14:00.187Z,3.83
2022-11-07T19:19:01.558Z,3.80
2022-11-07T19:21:28.750Z,3.67
2022-11-07T19:24:00.008Z,3.95
2022-11-07T19:26:26.956Z,4.30
2022-11-07T19:28:54.331Z,3.92
2022-11-07T19:31:21.723Z,3.53
2022-11-07T19:33:48.823Z,3.40
2022-11-07T19:36:19.960Z,3.80
2022-11-07T19:38:48.340Z,3.58
2022-11-07T19:41:16.912Z,3.63
2022-11-07T19:43:49.880Z,3.83
2022-11-07T19:46:22.989Z,3.95
2022-11-07T19:48:53.747Z,3.70
2022-11-07T19:51:23.046Z,4.10
2022-11-07T19:53:55.358Z,4.03
2022-11-07T19:56:22.956Z,4.32
2022-11-07T19:58:49.740Z,4.75
2022-11-07T20:01:20.434Z,4.43
2022-11-07T20:03:50.531Z,3.95
2022-11-07T20:06:38.266Z,4.05
2022-11-07T20:09:08.424Z,4.55
2022-11-07T20:11:35.685Z,3.25
2022-11-07T20:14:03.891Z,3.30
2022-11-07T20:16:36.735Z,3.67
2022-11-07T20:19:03.680Z,3.50
2022-11-07T20:21:31.331Z,3.22
2022-11-07T20:23:59.518Z,3.00
2022-11-07T20:26:28.641Z,3.30
2022-11-07T20:28:55.576Z,3.70
2022-11-07T20:31:30.516Z,3.60
2022-11-07T20:33:59.900Z,3.35
2022-11-07T20:36:27.030Z,3.83
2022-11-07T20:38:58.191Z,2.80
2022-11-07T20:41:27.019Z,2.80
2022-11-07T20:44:06.247Z,3.30
2022-11-07T20:46:36.453Z,3.25
2022-11-07T20:49:06.030Z,3.20
2022-11-07T20:51:33.151Z,3.10
2022-11-07T20:54:00.017Z,3.28
2022-11-07T20:56:28.753Z,4.30
2022-11-07T20:58:56.621Z,3.65
2022-11-07T21:01:28.209Z,2.90
2022-11-07T21:03:55.219Z,3.30
2022-11-07T21:06:22.050Z,2.88
2022-11-07T21:08:50.460Z,2.70
2022-11-07T21:11:17.671Z,2.88
2022-11-07T21:13:51.176Z,2.60
2022-11-07T21:16:23.233Z,3.03
2022-11-07T21:18:51.817Z,2.90
2022-11-07T21:21:26.973Z,3.50
2022-11-07T21:23:55.416Z,2.67
2022-11-07T21:26:31.863Z,2.50
2022-11-07T21:28:59.474Z,2.42
2022-11-07T21:31:31.892Z,2.88
2022-11-07T21:33:58.926Z,2.88
2022-11-07T21:36:28.976Z,2.50
2022-11-07T21:39:00.608Z,2.40
2022-11-07T21:41:28.867Z,2.78
2022-11-07T21:43:57.613Z,3.42
2022-11-07T21:46:30.843Z,2.88
2022-11-07T21:48:58.709Z,3.40
2022-11-07T21:51:31.611Z,2.28
2022-11-07T21:53:59.495Z,2.42
2022-11-07T21:56:30.297Z,3.15
2022-11-07T21:59:04.621Z,1.98
2022-11-07T22:01:35.563Z,2.85
2022-11-07T22:04:12.352Z,2.63
2022-11-07T22:06:43.581Z,2.88
2022-11-07T22:09:14.407Z,2.53
2022-11-07T22:11:41.480Z,2.58
2022-11-07T22:14:12.107Z,2.17
2022-11-07T22:16:38.993Z,2.20
2022-11-07T22:19:11.133Z,2.35
2022-11-07T22:21:39.134Z,2.60
2022-11-07T22:24:06.463Z,2.70
2022-11-07T22:26:33.314Z,2.63
2022-11-07T22:29:00.328Z,2.83
2022-11-07T22:31:30.349Z,2.40
2022-11-07T22:34:00.382Z,1.95
2022-11-07T22:36:28.026Z,1.70
2022-11-07T22:38:58.126Z,2.15
2022-11-07T22:41:27.191Z,2.00
2022-11-07T22:43:54.285Z,2.20
2022-11-07T22:46:25.543Z,2.63
2022-11-07T22:48:53.392Z,2.17
2022-11-07T22:51:24.231Z,1.80
2022-11-07T22:54:10.327Z,1.92
2022-11-07T22:56:37.965Z,1.70
2022-11-07T22:59:05.750Z,1.95
2022-11-07T23:01:36.238Z,2.25
2022-11-07T23:04:04.259Z,2.25
2022-11-07T23:06:31.401Z,2.10
2022-11-07T23:08:59.802Z,1.88
2022-11-07T23:11:48.051Z,2.22
2022-11-07T23:14:19.621Z,2.75
2022-11-07T23:16:50.465Z,2.00
2022-11-07T23:19:21.176Z,2.10
2022-11-07T23:21:49.334Z,2.00
2022-11-07T23:24:16.482Z,2.03
2022-11-07T23:26:43.715Z,2.45
2022-11-07T23:29:14.757Z,1.58
2022-11-07T23:31:43.832Z,2.38
2022-11-07T23:34:10.895Z,1.70
2022-11-07T23:36:40.680Z,2.00
2022-11-07T23:39:09.919Z,2.00
2022-11-07T23:41:36.733Z,2.25
2022-11-07T23:44:03.934Z,1.70
2022-11-07T23:46:50.049Z,2.28
2022-11-07T23:49:35.357Z,1.80
2022-11-07T23:52:02.245Z,1.75
2022-11-07T23:54:47.476Z,1.88
2022-11-07T23:57:14.403Z,1.77
